createdAt,value
2022-10-13T05:27:08.784Z,4.00
2022-10-13T05:48:55.275Z,160.00
2022-10-13T06:18:38.185Z,880.00
2022-10-13T06:23:38.216Z,1220.00
2022-10-13T06:28:38.069Z,1800.00
2022-10-13T06:33:38.205Z,2272.00
2022-10-13T06:38:37.961Z,2500.00
2022-10-13T06:43:40.390Z,2616.00
2022-10-13T06:48:37.888Z,2836.00
2022-10-13T06:53:37.816Z,3484.00
2022-10-13T06:58:37.807Z,4148.00
2022-10-13T07:03:37.686Z,4480.00
2022-10-13T07:08:37.637Z,4968.00
2022-10-13T07:13:38.089Z,5656.00
2022-10-13T07:18:37.443Z,6692.00
2022-10-13T07:23:37.605Z,7976.00
2022-10-13T07:28:37.545Z,9940.00
2022-10-13T07:33:38.489Z,11592.00
2022-10-13T07:38:37.440Z,12108.00
2022-10-13T07:43:37.325Z,10664.00
2022-10-13T07:48:37.223Z,10912.00
2022-10-13T07:53:37.107Z,11984.00
2022-10-13T07:58:37.076Z,13364.00
2022-10-13T08:08:37.162Z,14352.00
2022-10-13T08:13:36.863Z,12824.00
2022-10-13T08:18:37.979Z,13764.00
2022-10-13T08:23:36.972Z,18752.00
2022-10-13T08:28:36.898Z,23840.00
2022-10-13T08:33:36.657Z,33888.00
2022-10-13T08:38:36.719Z,25632.00
2022-10-13T08:43:49.097Z,21856.00
2022-10-13T08:48:37.511Z,14752.00
2022-10-13T08:53:36.507Z,13636.00
2022-10-13T08:58:36.521Z,12676.00
2022-10-13T09:03:36.581Z,14220.00
2022-10-13T09:08:36.530Z,15300.00
2022-10-13T09:13:36.297Z,16480.00
2022-10-13T09:18:36.138Z,19392.00
2022-10-13T09:23:39.530Z,19488.00
2022-10-13T09:28:37.226Z,17664.00
2022-10-13T09:33:36.294Z,16896.00
2022-10-13T09:38:37.189Z,17824.00
2022-10-13T09:43:36.117Z,19904.00
2022-10-13T09:48:36.095Z,18944.00
2022-10-13T09:53:38.030Z,19072.00
2022-10-13T09:58:35.854Z,21664.00
2022-10-13T10:03:35.924Z,23072.00
2022-10-13T10:08:58.115Z,23808.00
2022-10-13T12:36:28.609Z,8172.00
2022-10-13T12:41:38.036Z,7844.00
2022-10-13T12:46:25.733Z,5776.00
2022-10-13T12:51:25.835Z,4468.00
2022-10-13T12:56:25.744Z,7148.00
2022-10-13T13:01:26.697Z,9484.00
2022-10-13T13:06:25.647Z,9804.00
2022-10-13T13:11:26.571Z,9756.00
2022-10-13T13:16:25.444Z,11220.00
2022-10-13T13:21:25.360Z,12832.00
2022-10-13T13:26:26.483Z,12800.00
2022-10-13T13:31:27.809Z,15028.00
2022-10-13T13:36:25.586Z,10120.00
2022-10-13T13:41:26.453Z,8384.00
2022-10-13T13:46:29.684Z,8520.00
2022-10-13T13:51:25.118Z,9868.00
2022-10-13T13:56:26.158Z,10692.00
2022-10-13T14:01:26.391Z,9740.00
2022-10-13T14:31:49.037Z,3384.00
2022-10-13T14:36:47.626Z,4456.00
2022-10-13T14:41:46.676Z,4360.00
2022-10-13T14:53:07.111Z,1916.00
2022-10-13T14:58:06.457Z,2676.00
2022-10-13T15:03:06.465Z,3256.00
2022-10-13T15:08:16.941Z,3892.00
2022-10-13T15:13:06.926Z,4528.00
2022-10-13T15:18:06.180Z,6648.00
2022-10-13T15:23:06.127Z,7336.00
2022-10-13T15:28:08.589Z,5960.00
2022-10-13T15:33:06.051Z,4096.00
2022-10-13T15:38:06.319Z,3196.00
2022-10-13T15:43:06.692Z,2688.00
2022-10-13T15:48:06.381Z,2260.00
2022-10-13T15:53:05.842Z,1820.00
2022-10-13T15:58:19.135Z,1584.00
2022-10-13T16:03:05.698Z,1956.00
2022-10-13T16:08:06.038Z,2624.00
2022-10-13T16:13:05.645Z,2132.00
2022-10-13T16:18:05.506Z,1196.00
2022-10-13T16:23:05.666Z,620.00
2022-10-13T16:28:06.568Z,352.00
2022-10-13T16:33:05.501Z,268.00
2022-10-13T16:38:05.360Z,308.00
2022-10-13T16:43:06.413Z,308.00
2022-10-13T16:48:05.287Z,156.00
2022-10-13T16:53:05.326Z,72.00
2022-10-13T16:58:05.117Z,20.00
2022-10-13T17:03:08.419Z,4.00
2022-10-13T17:08:06.333Z,4.00
2022-10-13T17:13:04.927Z,0.00
2022-10-13T17:18:04.900Z,0.00
2022-10-13T17:23:06.948Z,0.00
2022-10-13T17:28:04.871Z,0.00
2022-10-13T17:33:04.798Z,0.00
2022-10-13T17:38:04.667Z,0.00
2022-10-13T17:43:04.785Z,0.00
2022-10-13T17:48:04.549Z,0.00
2022-10-13T17:53:04.581Z,0.00
2022-10-13T17:58:04.435Z,0.00
2022-10-13T18:03:04.434Z,0.00
2022-10-13T18:08:04.399Z,0.00
2022-10-13T18:13:04.338Z,0.00
2022-10-13T18:18:04.250Z,0.00
2022-10-13T18:23:04.212Z,0.00
2022-10-13T18:28:04.204Z,0.00
2022-10-13T18:33:04.250Z,0.00
2022-10-13T18:38:04.163Z,0.00
2022-10-13T18:43:03.951Z,0.00
2022-10-13T18:48:04.003Z,0.00
2022-10-13T18:53:03.970Z,0.00
2022-10-13T18:58:03.969Z,0.00
2022-10-13T19:03:03.763Z,0.00
2022-10-13T19:08:03.676Z,0.00
2022-10-13T19:13:03.614Z,0.00
2022-10-13T19:18:03.609Z,0.00
2022-10-13T19:23:03.655Z,0.00
2022-10-13T19:28:03.771Z,0.00
2022-10-13T19:33:03.445Z,0.00
2022-10-13T19:38:03.425Z,0.00
2022-10-13T19:43:03.316Z,0.00
2022-10-13T19:48:03.304Z,0.00
2022-10-13T19:53:03.334Z,0.00
2022-10-13T19:58:03.293Z,0.00
2022-10-13T20:03:03.137Z,0.00
2022-10-13T20:08:03.280Z,0.00
2022-10-13T20:13:02.987Z,0.00
2022-10-13T20:18:03.930Z,0.00
2022-10-13T20:23:02.872Z,0.00
2022-10-13T20:28:02.963Z,0.00
2022-10-13T20:33:02.986Z,0.00
2022-10-13T20:38:02.987Z,0.00
2022-10-13T20:43:02.639Z,0.00
2022-10-13T20:48:02.599Z,0.00
2022-10-13T20:53:02.517Z,0.00
2022-10-13T20:58:02.512Z,0.00
2022-10-13T21:03:02.508Z,0.00
2022-10-13T21:08:02.470Z,0.00
2022-10-13T21:13:02.408Z,0.00
2022-10-13T21:18:02.343Z,0.00
2022-10-13T21:23:02.189Z,0.00
2022-10-13T21:28:02.153Z,0.00
2022-10-13T21:33:02.180Z,0.00
2022-10-13T21:38:02.058Z,0.00
2022-10-13T21:43:02.014Z,0.00
2022-10-13T21:48:01.951Z,0.00
2022-10-13T21:53:01.992Z,0.00
2022-10-13T21:58:05.215Z,0.00
2022-10-13T22:03:01.771Z,0.00
2022-10-13T22:08:01.789Z,0.00
2022-10-13T22:13:01.716Z,0.00
2022-10-13T22:18:01.562Z,0.00
2022-10-13T22:23:01.581Z,0.00
2022-10-13T22:28:01.551Z,0.00
2022-10-13T22:33:02.393Z,0.00
2022-10-13T22:38:01.413Z,0.00
2022-10-13T22:43:01.378Z,0.00
2022-10-13T22:48:01.419Z,0.00
2022-10-13T22:53:01.364Z,0.00
2022-10-13T22:58:01.271Z,0.00
2022-10-13T23:03:01.158Z,0.00
2022-10-13T23:08:01.046Z,0.00
2022-10-13T23:13:00.976Z,0.00
2022-10-13T23:18:00.953Z,0.00
2022-10-13T23:23:01.120Z,0.00
2022-10-13T23:28:01.018Z,0.00
2022-10-13T23:33:01.890Z,0.00
2022-10-13T23:38:00.733Z,0.00
2022-10-13T23:43:00.719Z,0.00
2022-10-13T23:48:00.676Z,0.00
2022-10-13T23:53:01.685Z,0.00
2022-10-13T23:58:00.687Z,0.00
